createdAt,value
2017-06-21T00:01:24.557Z,24.17
2017-06-21T00:03:51.603Z,22.63
2017-06-21T00:06:23.548Z,25.03
2017-06-21T00:08:51.061Z,24.63
2017-06-21T00:11:18.518Z,25.20
2017-06-21T00:13:47.936Z,24.93
2017-06-21T00:16:15.320Z,25.37
2017-06-21T00:18:43.736Z,22.57
2017-06-21T00:21:13.027Z,22.37
2017-06-21T00:23:40.403Z,23.43
2017-06-21T00:26:06.657Z,24.07
2017-06-21T00:28:34.845Z,22.37
2017-06-21T00:31:04.312Z,23.33
2017-06-21T00:33:32.232Z,22.90
2017-06-21T00:36:00.702Z,22.97
2017-06-21T00:38:29.295Z,23.43
2017-06-21T00:40:56.562Z,22.90
2017-06-21T00:43:24.961Z,23.73
2017-06-21T00:45:53.005Z,23.33
2017-06-21T00:48:19.257Z,22.07
2017-06-21T00:50:46.616Z,23.53
2017-06-21T00:53:14.812Z,22.03
2017-06-21T02:44:43.700Z,22.93
2017-06-21T02:47:11.615Z,23.03
2017-06-21T02:49:58.127Z,19.87
2017-06-21T02:52:30.898Z,20.20
2017-06-21T02:54:58.233Z,22.87
2017-06-21T02:57:26.146Z,27.80
2017-06-21T02:59:52.440Z,27.43
2017-06-21T03:02:21.843Z,24.30
2017-06-21T03:04:53.941Z,26.20
2017-06-21T03:07:20.697Z,26.37
2017-06-21T03:09:48.892Z,24.47
2017-06-21T03:12:17.523Z,29.60
2017-06-21T03:14:49.188Z,32.10
2017-06-21T03:17:16.667Z,27.87
2017-06-21T03:19:43.283Z,28.13
2017-06-21T03:22:13.449Z,27.13
2017-06-21T03:24:42.225Z,26.10
2017-06-21T03:27:09.582Z,27.03
2017-06-21T03:29:36.973Z,25.23
2017-06-21T03:32:03.410Z,23.90
2017-06-21T03:34:31.220Z,23.70
2017-06-21T03:36:59.037Z,25.60
2017-06-21T03:39:31.203Z,25.67
2017-06-21T03:42:01.496Z,24.13
2017-06-21T03:44:30.933Z,24.07
2017-06-21T03:46:58.948Z,24.87
2017-06-21T03:49:28.694Z,24.10
2017-06-21T03:51:54.963Z,24.70
2017-06-21T03:54:23.080Z,25.80
2017-06-21T03:56:51.625Z,23.53
2017-06-21T03:59:18.887Z,23.73
2017-06-21T04:01:47.126Z,23.93
2017-06-21T04:04:16.850Z,24.70
2017-06-21T04:06:45.668Z,23.13
2017-06-21T04:09:11.960Z,23.47
2017-06-21T04:11:38.214Z,23.57
2017-06-21T04:14:05.251Z,23.57
2017-06-21T04:16:33.760Z,23.87
2017-06-21T04:19:00.865Z,23.60
2017-06-21T04:21:27.115Z,25.70
2017-06-21T04:23:59.888Z,22.73
2017-06-21T04:26:29.809Z,24.23
2017-06-21T04:28:58.006Z,22.90
2017-06-21T04:31:26.688Z,23.57
2017-06-21T04:33:52.937Z,24.40
2017-06-21T04:36:20.856Z,22.67
2017-06-21T04:38:49.036Z,23.60
2017-06-21T04:41:16.172Z,24.57
2017-06-21T04:43:42.455Z,24.30
2017-06-21T04:46:09.915Z,27.27
2017-06-21T04:48:38.681Z,27.00
2017-06-21T04:51:04.963Z,26.17
2017-06-21T04:53:33.084Z,26.93
2017-06-21T04:56:03.151Z,28.57
2017-06-21T04:58:31.247Z,28.60
2017-06-21T05:00:59.669Z,27.73
2017-06-21T05:03:27.610Z,28.07
2017-06-21T05:05:55.671Z,27.73
2017-06-21T05:08:22.734Z,28.37
2017-06-21T05:10:51.292Z,29.67
2017-06-21T05:13:19.032Z,28.03
2017-06-21T05:15:46.832Z,29.17
2017-06-21T05:18:16.868Z,29.00
2017-06-21T05:20:44.042Z,28.33
2017-06-21T05:23:11.805Z,29.53
2017-06-21T05:25:39.938Z,29.33
2017-06-21T05:28:08.281Z,28.07
2017-06-21T05:30:36.440Z,29.87
2017-06-21T05:33:05.524Z,30.50
2017-06-21T05:35:31.783Z,30.40
2017-06-21T05:37:59.921Z,29.80
2017-06-21T05:40:27.952Z,29.57
2017-06-21T05:42:56.710Z,32.70
2017-06-21T05:45:23.895Z,31.23
2017-06-21T05:47:53.910Z,31.60
2017-06-21T05:50:22.105Z,32.90
2017-06-21T05:52:53.810Z,32.93
2017-06-21T05:55:21.740Z,31.73
2017-06-21T05:57:49.945Z,31.33
2017-06-21T06:00:16.467Z,28.63
2017-06-21T06:02:42.721Z,33.30
2017-06-21T06:05:10.542Z,33.90
2017-06-21T06:07:37.775Z,34.30
2017-06-21T06:10:06.456Z,33.37
2017-06-21T06:12:34.140Z,30.77
2017-06-21T06:15:01.874Z,32.40
2017-06-21T06:17:28.214Z,32.17
2017-06-21T06:19:59.362Z,30.53
2017-06-21T06:22:28.368Z,31.10
2017-06-21T06:24:56.904Z,32.87
2017-06-21T06:27:25.260Z,33.00
2017-06-21T06:29:52.310Z,31.10
2017-06-21T06:32:25.220Z,34.37
2017-06-21T06:34:52.259Z,36.17
2017-06-21T06:37:21.184Z,33.37
2017-06-21T06:39:47.744Z,36.63
2017-06-21T06:42:16.323Z,42.07
2017-06-21T06:44:43.529Z,36.13
2017-06-21T06:47:13.014Z,35.37
2017-06-21T06:49:42.080Z,35.33
2017-06-21T06:52:10.609Z,32.90
2017-06-21T06:54:37.832Z,31.87
2017-06-21T06:57:04.990Z,31.00
2017-06-21T06:59:32.963Z,28.93
2017-06-21T07:02:00.939Z,29.00
2017-06-21T07:04:32.480Z,27.90
2017-06-21T07:07:02.421Z,27.10
2017-06-21T07:09:36.119Z,27.17
2017-06-21T07:14:35.004Z,27.10
2017-06-21T07:17:01.845Z,27.40
2017-06-21T07:19:29.964Z,26.40
2017-06-21T07:21:57.884Z,24.43
2017-06-21T07:24:25.815Z,26.90
2017-06-21T07:26:52.751Z,26.30
2017-06-21T07:29:19.769Z,24.90
2017-06-21T07:31:48.710Z,23.90
2017-06-21T07:34:15.493Z,25.80
2017-06-21T07:36:44.436Z,26.17
2017-06-21T07:39:11.982Z,24.83
2017-06-21T07:41:39.053Z,25.13
2017-06-21T07:44:09.931Z,27.17
2017-06-21T07:46:37.587Z,24.30
2017-06-21T07:49:06.067Z,23.63
2017-06-21T07:51:32.883Z,25.37
2017-06-21T07:53:59.136Z,25.93
2017-06-21T07:56:25.899Z,24.60
2017-06-21T07:58:54.009Z,25.60
2017-06-21T08:01:22.008Z,25.97
2017-06-21T08:03:48.948Z,26.37
2017-06-21T08:06:16.516Z,23.87
2017-06-21T08:08:44.696Z,23.70
2017-06-21T08:11:13.556Z,23.03
2017-06-21T08:13:41.948Z,26.90
2017-06-21T08:16:11.680Z,24.50
2017-06-21T08:18:40.364Z,24.10
2017-06-21T08:21:09.348Z,24.93
2017-06-21T08:23:36.403Z,23.17
2017-06-21T08:26:03.229Z,23.50
2017-06-21T08:28:30.040Z,25.07
2017-06-21T08:33:32.711Z,25.97
2017-06-21T08:35:59.904Z,25.37
2017-06-21T08:38:26.794Z,25.40
2017-06-21T08:40:55.188Z,24.03
2017-06-21T08:43:22.419Z,25.07
2017-06-21T08:45:49.904Z,25.33
2017-06-21T08:48:17.107Z,25.13
2017-06-21T08:50:43.436Z,25.20
2017-06-21T08:53:10.661Z,25.03
2017-06-21T08:55:36.884Z,22.10
2017-06-21T08:58:06.187Z,25.30
2017-06-21T09:00:34.148Z,23.43
2017-06-21T09:03:00.477Z,21.97
2017-06-21T09:05:26.775Z,22.17
2017-06-21T09:07:53.858Z,23.27
2017-06-21T09:12:53.529Z,21.17
2017-06-21T09:15:23.747Z,23.07
2017-06-21T09:17:53.381Z,21.93
2017-06-21T09:20:19.690Z,22.67
2017-06-21T09:22:48.348Z,21.77
2017-06-21T09:27:51.509Z,20.10
2017-06-21T09:30:18.558Z,21.87
2017-06-21T09:35:29.039Z,20.80
2017-06-21T09:37:59.436Z,20.27
2017-06-21T09:40:28.787Z,20.43
2017-06-21T09:42:57.581Z,20.13
2017-06-21T09:45:23.901Z,20.90
2017-06-21T09:47:52.031Z,18.60
2017-06-21T09:50:20.078Z,18.03
2017-06-21T09:52:48.185Z,17.10
2017-06-21T09:55:16.384Z,14.70
2017-06-21T09:57:46.390Z,14.97
2017-06-21T10:00:14.552Z,14.03
2017-06-21T10:02:45.775Z,14.83
2017-06-21T10:05:13.623Z,13.40
2017-06-21T10:07:43.183Z,14.17
2017-06-21T10:10:11.493Z,9.93
2017-06-21T10:12:38.849Z,10.93
2017-06-21T10:15:06.969Z,10.33
2017-06-21T10:17:37.693Z,9.50
2017-06-21T10:20:03.965Z,11.60
2017-06-21T10:22:31.047Z,11.20
2017-06-21T10:24:57.318Z,9.57
2017-06-21T10:27:25.401Z,10.97
2017-06-21T10:29:53.204Z,10.57
2017-06-21T10:32:20.702Z,11.37
2017-06-21T10:34:47.916Z,10.67
2017-06-21T10:37:15.704Z,11.20
2017-06-21T10:39:44.168Z,11.10
2017-06-21T10:42:12.349Z,13.13
2017-06-21T10:44:39.828Z,11.47
2017-06-21T10:47:08.975Z,13.00
2017-06-21T10:49:37.632Z,12.57
2017-06-21T10:52:06.536Z,12.10
2017-06-21T10:54:35.532Z,11.33
2017-06-21T10:57:02.665Z,11.93
2017-06-21T10:59:32.066Z,13.33
2017-06-21T11:02:00.052Z,13.60
2017-06-21T11:04:28.128Z,12.90
2017-06-21T11:06:54.370Z,12.90
2017-06-21T11:09:20.635Z,12.30
2017-06-21T11:11:47.095Z,12.77
2017-06-21T11:14:13.608Z,13.23
2017-06-21T11:16:39.890Z,13.50
2017-06-21T11:19:07.003Z,12.27
2017-06-21T11:21:34.107Z,11.70
2017-06-21T11:24:02.449Z,9.60
2017-06-21T11:26:29.593Z,9.10
2017-06-21T11:28:56.851Z,9.00
2017-06-21T11:31:27.707Z,9.20
2017-06-21T11:33:57.675Z,9.10
2017-06-21T11:36:25.456Z,8.47
2017-06-21T11:38:52.740Z,9.57
2017-06-21T11:41:19.913Z,8.07
2017-06-21T11:43:49.727Z,10.37
2017-06-21T11:46:18.156Z,9.83
2017-06-21T11:48:49.606Z,11.60
2017-06-21T11:51:18.719Z,10.80
2017-06-21T11:53:45.000Z,10.90
2017-06-21T11:56:12.851Z,12.87
2017-06-21T11:58:39.168Z,11.87
2017-06-21T12:01:05.788Z,10.90
2017-06-21T12:03:32.134Z,10.70
2017-06-21T12:05:58.407Z,10.33
2017-06-21T12:08:25.452Z,10.87
2017-06-21T12:11:29.186Z,10.50
2017-06-21T12:13:57.060Z,8.80
2017-06-21T12:16:23.560Z,9.47
2017-06-21T12:18:50.431Z,9.93
2017-06-21T12:21:17.718Z,9.70
2017-06-21T12:23:45.019Z,9.87
2017-06-21T12:26:11.557Z,9.73
2017-06-21T12:28:37.884Z,10.03
2017-06-21T12:31:04.157Z,10.83
2017-06-21T12:33:31.506Z,9.67
2017-06-21T12:36:01.044Z,9.97
2017-06-21T12:38:29.407Z,9.97
2017-06-21T12:40:55.680Z,11.60
2017-06-21T12:43:22.984Z,10.63
2017-06-21T12:45:56.947Z,11.30
2017-06-21T12:48:23.368Z,10.50
2017-06-21T12:50:49.621Z,12.43
2017-06-21T12:53:17.339Z,10.60
2017-06-21T12:55:46.141Z,9.40
2017-06-21T12:58:13.240Z,10.23
2017-06-21T13:00:42.180Z,9.70
2017-06-21T13:05:44.735Z,8.93
2017-06-21T13:08:15.369Z,9.00
2017-06-21T13:10:49.221Z,8.20
2017-06-21T13:13:18.030Z,9.47
2017-06-21T13:18:23.593Z,9.07
2017-06-21T13:21:00.285Z,9.37
2017-06-21T13:31:49.137Z,9.23
2017-06-21T13:34:18.702Z,8.67
2017-06-21T13:36:45.781Z,8.63
2017-06-21T13:39:12.982Z,8.83
2017-06-21T13:41:41.003Z,9.00
2017-06-21T13:44:12.042Z,8.60
2017-06-21T13:46:40.155Z,9.13
2017-06-21T13:49:09.588Z,7.90
2017-06-21T13:51:38.149Z,9.13
2017-06-21T13:54:05.388Z,9.93
2017-06-21T13:56:33.935Z,9.00
2017-06-21T13:59:01.226Z,9.47
2017-06-21T14:01:29.617Z,9.90
2017-06-21T14:03:57.592Z,9.60
2017-06-21T14:06:26.006Z,8.60
2017-06-21T14:08:53.252Z,9.50
2017-06-21T14:11:21.442Z,9.47
2017-06-21T14:13:47.713Z,8.47
2017-06-21T14:16:15.321Z,8.40
2017-06-21T14:18:43.260Z,8.60
2017-06-21T14:21:11.812Z,8.20
2017-06-21T14:23:39.505Z,8.40
2017-06-21T14:26:09.480Z,8.83
2017-06-21T14:28:37.571Z,8.50
2017-06-21T14:31:04.681Z,9.30
2017-06-21T14:33:31.865Z,8.97
2017-06-21T14:35:58.937Z,9.33
2017-06-21T14:38:26.995Z,8.73
2017-06-21T14:40:54.959Z,7.87
2017-06-21T14:43:24.967Z,9.33
2017-06-21T14:45:52.135Z,10.10
2017-06-21T14:48:19.199Z,9.10
2017-06-21T14:50:47.371Z,9.70
2017-06-21T14:53:14.763Z,9.30
2017-06-21T14:55:43.235Z,8.80
2017-06-21T14:58:33.780Z,10.90
2017-06-21T15:01:04.005Z,9.13
2017-06-21T15:03:36.563Z,9.13
2017-06-21T15:06:06.642Z,10.10
2017-06-21T15:08:35.383Z,9.37
2017-06-21T15:11:03.334Z,10.73
2017-06-21T15:13:31.731Z,9.70
2017-06-21T15:16:01.299Z,9.73
2017-06-21T15:18:28.468Z,10.40
2017-06-21T15:20:56.411Z,12.23
2017-06-21T15:23:26.661Z,10.97
2017-06-21T15:25:57.810Z,10.70
2017-06-21T15:28:25.441Z,10.40
2017-06-21T15:30:55.992Z,9.47
2017-06-21T15:33:25.864Z,10.00
2017-06-21T15:35:52.152Z,11.63
2017-06-21T15:38:22.759Z,9.47
2017-06-21T15:40:54.890Z,11.00
2017-06-21T15:43:23.848Z,10.07
2017-06-21T15:45:54.279Z,11.00
2017-06-21T15:48:23.067Z,10.60
2017-06-21T15:50:52.960Z,10.90
2017-06-21T15:53:23.475Z,11.27
2017-06-21T15:55:50.188Z,10.90
2017-06-21T15:58:32.709Z,11.00
2017-06-21T16:01:01.665Z,10.40
2017-06-21T16:03:31.020Z,11.10
2017-06-21T16:05:58.529Z,8.63
2017-06-21T16:08:26.817Z,8.80
2017-06-21T16:10:54.864Z,8.10
2017-06-21T16:13:23.211Z,8.63
2017-06-21T16:15:51.609Z,9.13
2017-06-21T16:18:20.808Z,9.60
2017-06-21T16:20:47.083Z,7.63
2017-06-21T16:23:15.437Z,9.20
2017-06-21T16:25:43.502Z,11.53
2017-06-21T16:28:12.073Z,15.93
2017-06-21T16:30:42.060Z,10.57
2017-06-21T16:33:13.898Z,12.90
2017-06-21T16:35:41.448Z,14.57
2017-06-21T16:38:09.324Z,15.60
2017-06-21T16:40:37.903Z,11.83
2017-06-21T16:43:06.585Z,11.97
2017-06-21T16:45:34.096Z,11.10
2017-06-21T16:48:02.797Z,12.20
2017-06-21T16:50:32.375Z,14.03
2017-06-21T16:53:00.597Z,23.93
2017-06-21T16:55:28.076Z,15.67
2017-06-21T16:57:57.223Z,11.30
2017-06-21T17:00:27.785Z,10.43
2017-06-21T17:02:54.369Z,11.60
2017-06-21T17:05:20.749Z,11.43
2017-06-21T17:07:47.050Z,11.17
2017-06-21T17:10:14.808Z,11.13
2017-06-21T17:12:42.743Z,10.37
2017-06-21T17:15:11.113Z,9.73
2017-06-21T17:17:37.468Z,9.90
2017-06-21T17:20:06.941Z,10.53
2017-06-21T17:22:35.109Z,10.90
2017-06-21T17:25:03.864Z,10.80
2017-06-21T17:27:30.142Z,11.57
2017-06-21T17:29:57.945Z,10.77
2017-06-21T17:32:35.762Z,10.90
2017-06-21T17:35:03.963Z,11.80
2017-06-21T17:37:32.119Z,11.63
2017-06-21T17:42:35.972Z,11.77
2017-06-21T17:45:04.258Z,12.30
2017-06-21T17:47:30.653Z,12.50
2017-06-21T17:49:58.510Z,11.53
2017-06-21T17:52:27.445Z,12.83
2017-06-21T17:54:55.410Z,11.57
2017-06-21T17:57:23.702Z,12.93
2017-06-21T17:59:53.412Z,14.10
2017-06-21T18:02:23.076Z,11.57
2017-06-21T18:04:53.635Z,12.47
2017-06-21T18:07:23.067Z,13.43
2017-06-21T18:09:51.729Z,17.00
2017-06-21T18:12:19.164Z,14.70
2017-06-21T18:14:48.514Z,14.27
2017-06-21T18:17:16.089Z,12.90
2017-06-21T18:19:44.031Z,12.70
2017-06-21T18:22:12.658Z,12.57
2017-06-21T18:24:40.622Z,11.13
2017-06-21T18:27:08.301Z,11.60
2017-06-21T18:29:37.178Z,11.87
2017-06-21T18:32:07.712Z,11.23
2017-06-21T18:34:35.763Z,12.73
2017-06-21T18:37:07.935Z,11.10
2017-06-21T18:39:37.103Z,10.70
2017-06-21T18:42:05.951Z,10.80
2017-06-21T18:44:35.162Z,12.03
2017-06-21T18:47:01.433Z,11.20
2017-06-21T18:49:31.310Z,10.60
2017-06-21T18:51:59.409Z,11.83
2017-06-21T18:57:00.033Z,11.63
2017-06-21T18:59:26.842Z,11.83
2017-06-21T19:01:54.857Z,11.90
2017-06-21T19:04:23.815Z,11.67
2017-06-21T19:06:50.126Z,12.77
2017-06-21T19:09:16.728Z,12.60
2017-06-21T19:11:46.064Z,11.60
2017-06-21T19:14:15.010Z,12.10
2017-06-21T19:16:42.953Z,11.73
2017-06-21T19:19:12.880Z,10.70
2017-06-21T19:21:41.386Z,11.00
2017-06-21T19:24:13.130Z,12.37
2017-06-21T19:26:40.923Z,11.90
2017-06-21T19:29:07.265Z,10.93
2017-06-21T19:31:35.676Z,13.60
2017-06-21T19:34:06.380Z,13.87
2017-06-21T19:36:34.408Z,12.20
2017-06-21T19:39:03.692Z,12.87
2017-06-21T19:41:32.684Z,12.50
2017-06-21T19:43:59.582Z,12.30
2017-06-21T19:46:28.817Z,13.23
2017-06-21T19:48:57.350Z,12.63
2017-06-21T19:51:25.965Z,14.23
2017-06-21T19:53:53.062Z,14.70
2017-06-21T19:56:20.512Z,14.20
2017-06-21T19:58:47.802Z,13.57
2017-06-21T20:01:15.001Z,13.67
2017-06-21T20:03:42.935Z,14.40
2017-06-21T20:06:10.101Z,13.47
2017-06-21T20:08:39.270Z,13.53
2017-06-21T20:11:10.007Z,14.00
2017-06-21T20:13:37.186Z,15.53
2017-06-21T20:16:04.462Z,14.47
2017-06-21T20:18:31.761Z,14.37
2017-06-21T20:21:00.712Z,15.57
2017-06-21T20:23:29.820Z,14.40
2017-06-21T20:26:05.506Z,15.60
2017-06-21T20:28:33.148Z,14.37
2017-06-21T20:31:00.420Z,16.57
2017-06-21T20:33:28.466Z,14.57
2017-06-21T20:35:58.075Z,15.03
2017-06-21T20:38:26.867Z,14.77
2017-06-21T20:40:56.307Z,14.30
2017-06-21T20:43:23.985Z,16.53
2017-06-21T20:45:52.307Z,19.57
2017-06-21T20:48:20.556Z,19.10
2017-06-21T20:50:46.850Z,16.53
2017-06-21T20:53:13.945Z,18.50
2017-06-21T20:55:43.764Z,19.47
2017-06-21T20:58:14.867Z,18.90
2017-06-21T21:00:42.484Z,19.47
2017-06-21T21:03:09.477Z,20.00
2017-06-21T21:05:37.716Z,17.90
2017-06-21T21:08:05.248Z,19.80
2017-06-21T21:10:34.210Z,19.60
2017-06-21T21:13:02.029Z,19.90
2017-06-21T21:15:28.739Z,19.47
2017-06-21T21:17:55.192Z,19.40
2017-06-21T21:20:22.812Z,18.37
2017-06-21T21:22:50.909Z,19.00
2017-06-21T21:25:17.868Z,18.83
2017-06-21T21:27:44.998Z,18.17
2017-06-21T21:30:12.275Z,20.77
2017-06-21T21:32:39.657Z,20.40
2017-06-21T21:35:08.045Z,20.27
2017-06-21T21:37:38.012Z,21.23
2017-06-21T21:40:05.223Z,20.83
2017-06-21T21:42:32.680Z,21.07
2017-06-21T21:45:01.158Z,19.30
2017-06-21T21:47:28.348Z,21.40
2017-06-21T21:49:56.620Z,18.87
2017-06-21T21:52:25.505Z,20.23
2017-06-21T21:54:51.931Z,18.53
2017-06-21T21:57:19.912Z,18.00
2017-06-21T21:59:48.843Z,19.57
2017-06-21T22:02:15.968Z,18.13
2017-06-21T22:04:43.424Z,18.70
2017-06-21T22:07:09.976Z,17.17
2017-06-21T22:09:38.346Z,17.80
2017-06-21T22:12:07.742Z,18.30
2017-06-21T22:14:35.247Z,21.47
2017-06-21T22:17:02.566Z,20.10
2017-06-21T22:19:30.616Z,20.47
2017-06-21T22:22:01.018Z,20.63
2017-06-21T22:24:29.740Z,20.23
2017-06-21T22:26:57.015Z,21.30
2017-06-21T22:29:24.105Z,20.43
2017-06-21T22:31:53.337Z,21.07
2017-06-21T22:34:22.498Z,19.80
2017-06-21T22:36:49.050Z,20.43
2017-06-21T22:39:32.306Z,20.50
2017-06-21T22:42:00.220Z,19.00
2017-06-21T22:44:29.392Z,19.73
2017-06-21T22:46:57.376Z,22.30
2017-06-21T22:49:26.146Z,19.80
2017-06-21T22:51:56.128Z,19.87
2017-06-21T22:54:25.808Z,18.70
2017-06-21T22:56:53.741Z,21.60
2017-06-21T22:59:20.009Z,21.77
2017-06-21T23:01:47.075Z,19.23
2017-06-21T23:04:15.112Z,20.67
2017-06-21T23:06:44.598Z,20.27
2017-06-21T23:09:11.948Z,19.93
2017-06-21T23:11:40.024Z,20.00
2017-06-21T23:14:10.168Z,20.87
2017-06-21T23:16:39.397Z,20.90
2017-06-21T23:19:05.667Z,20.27
2017-06-21T23:21:34.097Z,20.93
2017-06-21T23:24:02.429Z,20.33
2017-06-21T23:26:31.969Z,19.70
2017-06-21T23:28:59.103Z,20.30
2017-06-21T23:31:26.693Z,19.23
2017-06-21T23:33:54.833Z,18.27
2017-06-21T23:36:22.762Z,18.77
2017-06-21T23:38:51.627Z,19.93
2017-06-21T23:41:19.620Z,19.23
2017-06-21T23:43:48.753Z,19.57
2017-06-21T23:46:15.017Z,20.80
2017-06-21T23:48:43.810Z,19.07
2017-06-21T23:51:11.857Z,19.47
2017-06-21T23:53:39.781Z,18.73
2017-06-21T23:56:07.719Z,18.63
2017-06-21T23:58:36.774Z,20.23
